createdAt,value
2023-03-29T00:01:07.714Z,174.54
2023-03-29T00:05:07.680Z,174.54
2023-03-29T00:09:07.710Z,174.30
2023-03-29T00:13:07.697Z,174.56
2023-03-29T00:17:07.845Z,174.86
2023-03-29T00:21:07.724Z,174.66
2023-03-29T00:25:07.716Z,173.97
2023-03-29T00:29:07.745Z,174.54
2023-03-29T00:33:07.826Z,173.93
2023-03-29T00:37:07.769Z,173.55
2023-03-29T00:41:07.788Z,173.83
2023-03-29T00:45:07.793Z,173.54
2023-03-29T00:49:07.835Z,173.09
2023-03-29T00:53:07.807Z,173.07
2023-03-29T00:57:07.860Z,173.51
2023-03-29T01:01:07.788Z,173.37
2023-03-29T01:05:07.850Z,172.75
2023-03-29T01:09:07.875Z,172.76
2023-03-29T01:13:07.900Z,173.36
2023-03-29T01:17:07.835Z,173.22
2023-03-29T01:21:07.860Z,173.26
2023-03-29T01:25:07.893Z,173.23
2023-03-29T01:29:07.875Z,173.49
2023-03-29T01:33:07.930Z,172.24
2023-03-29T01:37:07.916Z,172.44
2023-03-29T01:41:07.971Z,172.02
2023-03-29T01:45:07.961Z,171.47
2023-03-29T01:49:07.982Z,172.32
2023-03-29T01:53:07.970Z,172.38
2023-03-29T01:57:08.021Z,172.41
2023-03-29T02:01:08.030Z,172.10
2023-03-29T02:05:08.001Z,171.84
2023-03-29T02:09:08.033Z,171.39
2023-03-29T02:13:07.984Z,171.50
2023-03-29T02:17:08.008Z,172.09
2023-03-29T02:21:08.019Z,171.13
2023-03-29T02:25:08.030Z,171.62
2023-03-29T02:29:08.053Z,171.46
2023-03-29T02:33:08.073Z,171.02
2023-03-29T02:37:09.004Z,171.31
2023-03-29T02:41:08.062Z,171.43
2023-03-29T02:45:08.068Z,170.67
2023-03-29T02:49:08.076Z,170.93
2023-03-29T02:53:08.070Z,171.51
2023-03-29T02:57:08.167Z,172.04
2023-03-29T03:01:08.112Z,171.31
2023-03-29T03:05:08.122Z,171.23
2023-03-29T03:09:08.135Z,170.88
2023-03-29T03:13:08.143Z,170.67
2023-03-29T03:17:08.169Z,171.28
2023-03-29T03:21:08.175Z,171.04
2023-03-29T03:25:08.182Z,171.26
2023-03-29T03:29:08.203Z,170.46
2023-03-29T03:33:08.207Z,170.24
2023-03-29T03:37:08.200Z,169.71
2023-03-29T03:41:08.195Z,170.96
2023-03-29T03:45:08.221Z,170.60
2023-03-29T03:49:08.212Z,171.44
2023-03-29T03:53:08.239Z,169.72
2023-03-29T03:57:08.270Z,170.81
2023-03-29T04:01:08.250Z,170.26
2023-03-29T04:05:08.271Z,169.45
2023-03-29T04:09:08.273Z,169.70
2023-03-29T04:13:08.333Z,169.33
2023-03-29T04:17:08.300Z,169.02
2023-03-29T04:21:08.308Z,169.77
2023-03-29T04:25:08.655Z,169.95
2023-03-29T04:29:08.334Z,169.37
2023-03-29T04:33:08.471Z,169.45
2023-03-29T04:37:08.356Z,169.07
2023-03-29T04:41:08.372Z,168.51
2023-03-29T04:45:08.459Z,169.74
2023-03-29T04:49:08.402Z,169.34
2023-03-29T04:53:08.395Z,169.18
2023-03-29T04:57:08.450Z,169.18
2023-03-29T05:01:08.421Z,170.07
2023-03-29T05:05:08.448Z,169.23
2023-03-29T05:09:08.418Z,170.27
2023-03-29T05:13:08.442Z,170.58
2023-03-29T05:17:08.471Z,170.52
2023-03-29T05:21:08.437Z,170.72
2023-03-29T05:25:08.446Z,171.31
2023-03-29T05:29:08.449Z,171.89
2023-03-29T05:33:08.515Z,171.21
2023-03-29T05:37:08.502Z,170.58
2023-03-29T05:41:08.683Z,172.87
2023-03-29T05:45:08.699Z,176.11
2023-03-29T05:49:08.507Z,174.75
2023-03-29T05:53:08.662Z,178.69
2023-03-29T05:57:08.743Z,180.38
2023-03-29T06:01:08.664Z,182.78
2023-03-29T06:05:08.677Z,185.84
2023-03-29T06:09:08.686Z,190.69
2023-03-29T06:13:08.580Z,189.94
2023-03-29T06:17:08.648Z,191.34
2023-03-29T06:21:08.560Z,190.83
2023-03-29T06:25:08.587Z,191.19
2023-03-29T06:29:08.587Z,191.21
2023-03-29T06:33:08.654Z,192.05
2023-03-29T06:37:08.622Z,191.01
2023-03-29T06:41:08.634Z,192.90
2023-03-29T06:45:08.654Z,193.39
2023-03-29T06:49:08.705Z,195.11
2023-03-29T06:53:08.729Z,195.45
2023-03-29T06:57:08.784Z,195.82
2023-03-29T07:01:08.667Z,196.55
2023-03-29T07:05:09.294Z,199.67
2023-03-29T07:09:08.764Z,201.66
2023-03-29T07:13:09.217Z,203.85
2023-03-29T07:17:08.690Z,205.89
2023-03-29T07:21:08.707Z,211.42
2023-03-29T07:25:08.592Z,210.50
2023-03-29T07:29:08.708Z,212.83
2023-03-29T07:33:08.844Z,216.84
2023-03-29T07:37:08.500Z,219.68
2023-03-29T07:41:08.692Z,225.24
2023-03-29T07:45:08.807Z,229.89
2023-03-29T07:49:08.714Z,239.56
2023-03-29T07:53:08.834Z,248.99
2023-03-29T07:57:08.982Z,249.98
2023-03-29T08:01:10.908Z,249.32
2023-03-29T08:05:09.151Z,249.31
2023-03-29T08:09:08.944Z,249.87
2023-03-29T08:13:08.933Z,249.40
2023-03-29T08:17:08.950Z,250.19
2023-03-29T08:21:08.861Z,249.46
2023-03-29T08:25:08.851Z,248.54
2023-03-29T08:29:08.784Z,248.94
2023-03-29T08:33:08.786Z,249.37
2023-03-29T08:37:08.768Z,247.65
2023-03-29T08:41:08.644Z,244.62
2023-03-29T08:45:08.630Z,244.68
2023-03-29T08:49:08.757Z,250.11
2023-03-29T08:53:08.763Z,248.68
2023-03-29T08:57:08.584Z,247.47
2023-03-29T09:01:08.459Z,249.93
2023-03-29T09:05:08.543Z,249.35
2023-03-29T09:09:08.488Z,247.47
2023-03-29T09:13:08.774Z,247.94
2023-03-29T09:17:08.433Z,247.08
2023-03-29T09:21:08.386Z,247.55
2023-03-29T09:25:08.349Z,247.39
2023-03-29T09:29:09.735Z,247.06
2023-03-29T09:33:08.391Z,246.61
2023-03-29T09:37:08.224Z,246.24
2023-03-29T09:41:08.281Z,214.81
2023-03-29T09:45:08.252Z,211.28
2023-03-29T09:49:08.257Z,218.17
2023-03-29T09:53:08.335Z,204.66
2023-03-29T09:57:08.503Z,200.06
2023-03-29T10:01:08.715Z,195.39
2023-03-29T10:05:08.681Z,196.30
2023-03-29T10:09:08.794Z,191.67
2023-03-29T10:13:08.851Z,189.48
2023-03-29T10:17:08.952Z,188.68
2023-03-29T10:21:09.050Z,183.08
2023-03-29T10:25:09.136Z,184.59
2023-03-29T10:29:09.245Z,172.31
2023-03-29T10:33:09.430Z,169.83
2023-03-29T10:37:09.763Z,164.71
2023-03-29T10:41:09.801Z,141.55
2023-03-29T10:45:09.633Z,157.90
2023-03-29T10:49:10.757Z,165.24
2023-03-29T10:53:10.005Z,163.25
2023-03-29T10:57:10.204Z,156.47
2023-03-29T11:01:10.441Z,165.70
2023-03-29T11:05:10.451Z,166.30
2023-03-29T11:09:10.499Z,168.27
2023-03-29T11:13:10.525Z,166.91
2023-03-29T11:17:10.792Z,166.55
2023-03-29T11:21:10.985Z,164.43
2023-03-29T11:25:10.590Z,166.15
2023-03-29T11:29:10.803Z,162.30
2023-03-29T11:33:10.814Z,163.82
2023-03-29T11:37:10.552Z,168.58
2023-03-29T11:41:10.558Z,168.17
2023-03-29T11:45:10.607Z,156.19
2023-03-29T11:49:10.670Z,146.54
2023-03-29T11:53:10.871Z,135.65
2023-03-29T11:57:11.101Z,123.88
2023-03-29T12:01:11.200Z,111.88
2023-03-29T12:05:11.182Z,104.26
2023-03-29T12:09:11.158Z,95.65
2023-03-29T12:13:11.087Z,88.62
2023-03-29T12:17:11.068Z,82.01
2023-03-29T12:21:11.031Z,78.93
2023-03-29T12:25:10.973Z,73.37
2023-03-29T12:29:10.956Z,70.60
2023-03-29T12:33:12.982Z,64.69
2023-03-29T12:37:10.892Z,60.03
2023-03-29T12:41:10.866Z,53.84
2023-03-29T12:45:10.839Z,48.78
2023-03-29T12:49:10.785Z,51.64
2023-03-29T12:53:10.729Z,56.43
2023-03-29T12:57:10.751Z,58.54
2023-03-29T13:01:10.881Z,63.82
2023-03-29T13:05:10.705Z,64.94
2023-03-29T13:09:10.612Z,68.06
2023-03-29T13:13:10.564Z,78.54
2023-03-29T13:17:18.333Z,69.40
2023-03-29T13:21:11.493Z,59.44
2023-03-29T13:25:10.474Z,55.23
2023-03-29T13:29:10.417Z,73.68
2023-03-29T13:33:10.380Z,86.63
2023-03-29T13:37:10.327Z,94.83
2023-03-29T13:41:10.411Z,101.64
2023-03-29T13:45:10.368Z,108.49
2023-03-29T13:49:10.308Z,118.90
2023-03-29T13:53:10.273Z,126.62
2023-03-29T13:57:10.314Z,129.77
2023-03-29T14:01:10.251Z,133.11
2023-03-29T14:05:10.165Z,135.90
2023-03-29T14:09:10.180Z,138.00
2023-03-29T14:13:10.098Z,140.15
2023-03-29T14:17:10.055Z,140.57
2023-03-29T14:21:10.018Z,143.01
2023-03-29T14:25:09.995Z,143.50
2023-03-29T14:29:09.935Z,145.69
2023-03-29T14:33:10.312Z,147.18
2023-03-29T14:37:10.111Z,148.67
2023-03-29T14:41:10.058Z,150.51
2023-03-29T14:45:10.040Z,149.85
2023-03-29T14:49:09.970Z,151.49
2023-03-29T14:53:09.968Z,151.82
2023-03-29T14:57:10.007Z,152.67
2023-03-29T15:01:09.905Z,151.59
2023-03-29T15:05:09.850Z,152.12
2023-03-29T15:09:09.882Z,152.43
2023-03-29T15:13:09.775Z,152.24
2023-03-29T15:17:09.714Z,151.41
2023-03-29T15:21:09.710Z,150.94
2023-03-29T15:25:09.683Z,151.32
2023-03-29T15:29:09.651Z,150.61
2023-03-29T15:33:09.657Z,150.60
2023-03-29T15:37:09.600Z,149.34
2023-03-29T15:41:09.564Z,150.24
2023-03-29T15:45:09.478Z,149.85
2023-03-29T15:49:09.425Z,149.12
2023-03-29T15:53:15.186Z,149.01
2023-03-29T15:57:10.597Z,149.75
2023-03-29T16:01:09.416Z,149.41
2023-03-29T16:05:09.564Z,149.48
2023-03-29T16:09:09.536Z,148.82
2023-03-29T16:13:09.491Z,148.24
2023-03-29T16:17:09.465Z,147.89
2023-03-29T16:21:12.171Z,148.28
2023-03-29T16:25:09.434Z,147.76
2023-03-29T16:29:09.348Z,147.46
2023-03-29T16:33:09.375Z,147.69
2023-03-29T16:37:09.269Z,148.46
2023-03-29T16:41:09.217Z,147.77
2023-03-29T16:45:09.375Z,147.68
2023-03-29T16:49:09.168Z,147.04
2023-03-29T16:53:09.114Z,148.22
2023-03-29T16:57:09.147Z,148.27
2023-03-29T17:01:09.236Z,147.67
2023-03-29T17:05:09.094Z,146.84
2023-03-29T17:09:09.106Z,146.03
2023-03-29T17:13:09.033Z,145.77
2023-03-29T17:17:09.028Z,144.19
2023-03-29T17:21:08.944Z,142.38
2023-03-29T17:25:08.914Z,143.46
2023-03-29T17:29:08.878Z,142.57
2023-03-29T17:33:08.897Z,142.05
2023-03-29T17:37:08.863Z,142.45
2023-03-29T17:41:08.748Z,141.48
2023-03-29T17:45:08.962Z,142.17
2023-03-29T17:49:08.914Z,142.85
2023-03-29T17:53:08.894Z,140.89
2023-03-29T17:57:08.881Z,141.40
2023-03-29T18:01:08.845Z,140.56
2023-03-29T18:05:08.765Z,139.11
2023-03-29T18:09:08.740Z,138.63
2023-03-29T18:13:08.720Z,139.69
2023-03-29T18:17:08.739Z,138.64
2023-03-29T18:21:08.684Z,137.45
2023-03-29T18:25:08.692Z,137.66
2023-03-29T18:29:09.927Z,135.55
2023-03-29T18:33:08.675Z,137.64
2023-03-29T18:37:08.596Z,137.02
2023-03-29T18:41:08.665Z,138.68
2023-03-29T18:45:08.502Z,136.53
2023-03-29T18:49:08.713Z,136.18
2023-03-29T18:53:08.686Z,135.85
2023-03-29T18:57:08.753Z,135.96
2023-03-29T19:01:08.655Z,135.01
2023-03-29T19:05:08.601Z,134.80
2023-03-29T19:09:08.519Z,132.56
2023-03-29T19:13:08.523Z,133.64
2023-03-29T19:17:08.478Z,133.16
2023-03-29T19:21:08.431Z,132.58
2023-03-29T19:25:08.431Z,130.85
2023-03-29T19:29:08.353Z,129.77
2023-03-29T19:33:08.694Z,129.94
2023-03-29T19:37:08.809Z,132.26
2023-03-29T19:41:09.018Z,130.25
2023-03-29T19:45:09.234Z,130.98
2023-03-29T19:49:09.195Z,128.98
2023-03-29T19:53:09.141Z,128.55
2023-03-29T19:57:09.259Z,128.16
2023-03-29T20:01:09.041Z,128.69
2023-03-29T20:05:09.035Z,128.64
2023-03-29T20:09:08.997Z,128.71
2023-03-29T20:13:08.926Z,128.14
2023-03-29T20:17:08.901Z,126.02
2023-03-29T20:21:08.907Z,126.49
2023-03-29T20:25:08.847Z,125.13
2023-03-29T20:29:08.968Z,125.40
2023-03-29T20:33:08.993Z,125.40
2023-03-29T20:37:08.952Z,124.94
2023-03-29T20:41:08.881Z,125.06
2023-03-29T20:45:08.833Z,124.54
2023-03-29T20:49:08.870Z,124.75
2023-03-29T20:53:08.790Z,123.54
2023-03-29T20:57:08.739Z,123.47
2023-03-29T21:01:08.748Z,122.28
2023-03-29T21:05:08.682Z,123.36
2023-03-29T21:09:08.628Z,123.74
2023-03-29T21:13:08.734Z,123.90
2023-03-29T21:17:08.947Z,121.83
2023-03-29T21:21:09.112Z,123.32
2023-03-29T21:25:09.366Z,122.23
2023-03-29T21:29:09.501Z,122.28
2023-03-29T21:33:09.658Z,122.78
2023-03-29T21:37:09.811Z,121.12
2023-03-29T21:41:10.042Z,122.74
2023-03-29T21:45:09.986Z,120.16
2023-03-29T21:49:09.928Z,120.17
2023-03-29T21:53:09.932Z,120.29
2023-03-29T21:57:09.950Z,119.14
2023-03-29T22:01:09.932Z,119.72
2023-03-29T22:05:09.860Z,118.10
2023-03-29T22:09:09.780Z,119.14
2023-03-29T22:13:09.718Z,119.19
2023-03-29T22:17:09.728Z,119.13
2023-03-29T22:21:09.739Z,117.97
2023-03-29T22:25:09.684Z,117.19
2023-03-29T22:29:09.682Z,116.19
2023-03-29T22:33:09.641Z,117.53
2023-03-29T22:37:09.569Z,115.36
2023-03-29T22:41:09.569Z,115.92
2023-03-29T22:45:09.503Z,116.43
2023-03-29T22:49:09.486Z,114.42
2023-03-29T22:53:09.450Z,114.62
2023-03-29T22:57:09.434Z,114.97
2023-03-29T23:01:09.638Z,114.08
2023-03-29T23:05:09.397Z,113.67
2023-03-29T23:09:09.306Z,112.21
2023-03-29T23:13:09.317Z,113.05
2023-03-29T23:17:09.264Z,112.88
2023-03-29T23:21:09.239Z,110.53
2023-03-29T23:25:09.198Z,111.58
2023-03-29T23:29:09.199Z,112.52
2023-03-29T23:33:09.176Z,110.17
2023-03-29T23:37:09.096Z,111.26
2023-03-29T23:41:09.101Z,111.39
2023-03-29T23:45:09.076Z,111.01
2023-03-29T23:49:09.042Z,109.73
2023-03-29T23:53:09.040Z,110.04
2023-03-29T23:57:09.008Z,110.33
